Time;durP1;ratioP1;P1;durP2;ratioP2;P2;SDS_P1;SDS_P2;PMS_P1;PMS_P2;Temp;Humidity;BMP_temperature;BMP_pressure;BME280_temperature;BME280_humidity;BME280_pressure;Samples;Min_cycle;Max_cycle;Signal;HPM_P1;HPM_P2
2023/08/29 00:01:12;;;;;;;2.30;2.17;;;13.50;99.90;;;;;;4877332;29;20460;-68
2023/08/29 00:03:40;;;;;;;2.30;2.07;;;13.50;99.90;;;;;;4877577;29;20463;-68
2023/08/29 00:06:07;;;;;;;2.10;1.90;;;13.50;99.90;;;;;;4877456;29;20465;-68
2023/08/29 00:08:34;;;;;;;2.60;2.40;;;13.50;99.90;;;;;;4877320;29;20841;-68
2023/08/29 00:11:02;;;;;;;2.33;2.13;;;13.50;99.90;;;;;;4876797;29;20488;-68
2023/08/29 00:13:29;;;;;;;2.33;2.00;;;13.50;99.90;;;;;;4877350;29;20465;-68
2023/08/29 00:15:56;;;;;;;2.37;2.10;;;13.50;99.90;;;;;;4877049;29;20471;-68
2023/08/29 00:18:23;;;;;;;2.53;1.97;;;13.50;99.90;;;;;;4876580;29;20476;-68
2023/08/29 00:20:51;;;;;;;2.27;2.07;;;13.50;99.90;;;;;;4877058;29;20846;-68
2023/08/29 00:23:18;;;;;;;2.27;2.07;;;13.50;99.90;;;;;;4877096;29;20469;-68
2023/08/29 00:25:46;;;;;;;2.77;2.50;;;13.50;99.90;;;;;;4876997;29;20461;-67
2023/08/29 00:28:12;;;;;;;2.60;2.40;;;13.50;99.90;;;;;;4877071;29;20511;-67
2023/08/29 00:30:40;;;;;;;2.50;2.30;;;13.50;99.90;;;;;;4877122;29;20495;-67
2023/08/29 00:33:08;;;;;;;3.20;2.10;;;13.50;99.90;;;;;;4876330;29;20475;-68
2023/08/29 00:35:36;;;;;;;2.43;2.23;;;13.50;99.90;;;;;;4877115;29;20504;-68
2023/08/29 00:38:04;;;;;;;2.33;2.13;;;13.50;99.90;;;;;;4876322;29;20469;-68
2023/08/29 00:40:31;;;;;;;2.57;2.37;;;13.50;99.90;;;;;;4876945;29;21023;-68
2023/08/29 00:42:59;;;;;;;2.47;2.27;;;13.50;99.90;;;;;;4876503;29;20557;-68
2023/08/29 00:45:26;;;;;;;2.40;2.20;;;13.50;99.90;;;;;;4877255;29;20965;-68
2023/08/29 00:47:53;;;;;;;3.03;2.57;;;13.50;99.90;;;;;;4876455;29;20476;-68
2023/08/29 00:50:20;;;;;;;2.37;2.17;;;13.50;99.90;;;;;;4876862;29;20865;-67
2023/08/29 00:52:47;;;;;;;2.33;2.13;;;13.50;99.90;;;;;;4876295;29;20471;-68
2023/08/29 00:55:16;;;;;;;2.73;2.50;;;13.50;99.90;;;;;;4875185;29;20479;-68
2023/08/29 00:57:43;;;;;;;2.40;2.20;;;13.50;99.90;;;;;;4874681;29;20967;-68
2023/08/29 01:00:12;;;;;;;2.73;2.53;;;13.50;99.90;;;;;;4876059;29;20481;-67
2023/08/29 01:02:38;;;;;;;2.50;2.30;;;13.50;99.90;;;;;;4872697;29;20489;-68
2023/08/29 01:05:05;;;;;;;2.73;2.43;;;13.50;99.90;;;;;;4876054;29;20467;-68
2023/08/29 01:07:32;;;;;;;2.83;2.63;;;13.50;99.90;;;;;;4876818;29;20472;-68
2023/08/29 01:09:59;;;;;;;3.20;2.90;;;13.50;99.90;;;;;;4876464;29;20484;-68
2023/08/29 01:12:38;;;;;;;2.40;2.20;;;13.50;99.90;;;;;;4876485;29;20484;-68
2023/08/29 01:15:10;;;;;;;3.40;2.57;;;13.50;99.90;;;;;;4876431;29;20500;-68
2023/08/29 01:17:42;;;;;;;3.23;2.83;;;13.50;99.90;;;;;;4876730;29;20464;-68
2023/08/29 01:20:11;;;;;;;2.33;2.13;;;13.50;99.90;;;;;;4876303;29;21086;-68
2023/08/29 01:22:45;;;;;;;2.50;2.30;;;13.50;99.90;;;;;;4876532;29;20836;-68
2023/08/29 01:25:18;;;;;;;2.43;2.23;;;13.50;99.90;;;;;;4876345;29;20464;-68
2023/08/29 01:27:47;;;;;;;3.03;2.27;;;13.50;99.90;;;;;;4876630;29;20464;-68
2023/08/29 01:30:14;;;;;;;3.13;2.77;;;13.50;99.90;;;;;;4861328;29;21020;-68
2023/08/29 01:32:42;;;;;;;2.87;2.60;;;13.50;99.90;;;;;;4876314;29;21004;-68
2023/08/29 01:35:11;;;;;;;2.90;2.37;;;13.50;99.90;;;;;;4876125;29;21136;-68
2023/08/29 01:37:38;;;;;;;2.40;2.20;;;13.50;99.90;;;;;;4876367;29;20465;-68
2023/08/29 01:40:06;;;;;;;2.40;2.00;;;13.50;99.90;;;;;;4876134;29;20484;-68
2023/08/29 01:42:33;;;;;;;2.53;2.33;;;13.50;99.90;;;;;;4876477;29;20560;-68
2023/08/29 01:45:01;;;;;;;2.83;2.53;;;13.50;99.90;;;;;;4876247;29;20465;-67
2023/08/29 01:47:27;;;;;;;2.97;2.60;;;13.50;99.90;;;;;;4876376;29;20469;-68
2023/08/29 01:49:54;;;;;;;2.40;2.20;;;13.50;99.90;;;;;;4876192;29;20491;-68
2023/08/29 01:52:21;;;;;;;2.67;2.23;;;13.50;99.90;;;;;;4876392;29;20841;-68
2023/08/29 01:54:47;;;;;;;5.03;2.57;;;13.50;99.90;;;;;;4876430;29;20456;-68
2023/08/29 01:57:16;;;;;;;2.10;1.90;;;13.40;99.90;;;;;;4876242;29;20463;-68
2023/08/29 01:59:45;;;;;;;2.20;2.00;;;13.40;99.90;;;;;;4879820;29;20911;-68
2023/08/29 02:02:14;;;;;;;2.87;2.40;;;13.40;99.90;;;;;;4879398;29;21162;-68
2023/08/29 02:04:41;;;;;;;3.60;3.00;;;13.40;99.90;;;;;;4879932;29;20474;-68
2023/08/29 02:07:07;;;;;;;4.10;2.77;;;13.40;99.90;;;;;;4879661;29;20468;-68
2023/08/29 02:09:34;;;;;;;2.47;2.27;;;13.40;99.90;;;;;;4879800;29;20483;-68
2023/08/29 02:12:01;;;;;;;3.20;2.50;;;13.40;99.90;;;;;;4879200;29;20483;-68
2023/08/29 02:14:27;;;;;;;2.67;2.47;;;13.40;99.90;;;;;;4879873;29;20461;-67
2023/08/29 02:16:54;;;;;;;3.00;2.70;;;13.40;99.90;;;;;;4879560;29;20468;-68
2023/08/29 02:19:23;;;;;;;3.80;2.40;;;13.40;99.90;;;;;;4879338;29;20484;-68
2023/08/29 02:21:49;;;;;;;2.70;2.50;;;13.50;99.90;;;;;;4879500;29;20455;-68
2023/08/29 02:24:16;;;;;;;6.80;2.40;;;13.40;99.90;;;;;;4879066;29;20473;-67
2023/08/29 02:26:43;;;;;;;2.80;2.33;;;13.40;99.90;;;;;;4879536;29;20460;-68
2023/08/29 02:29:09;;;;;;;3.37;3.07;;;13.40;99.90;;;;;;4879002;29;20481;-68
2023/08/29 02:31:36;;;;;;;2.70;2.50;;;13.40;99.90;;;;;;4879174;29;21041;-68
2023/08/29 02:34:03;;;;;;;2.70;2.50;;;13.40;99.90;;;;;;4878976;29;20471;-68
2023/08/29 02:36:31;;;;;;;3.20;2.60;;;13.40;99.90;;;;;;4879552;29;20464;-67
2023/08/29 02:38:58;;;;;;;2.40;2.20;;;13.50;99.90;;;;;;4878884;29;20491;-67
2023/08/29 02:41:24;;;;;;;2.80;2.60;;;13.50;99.90;;;;;;4879041;29;20513;-67
2023/08/29 02:43:51;;;;;;;4.43;2.73;;;13.40;99.90;;;;;;4879296;29;20471;-67
2023/08/29 02:46:18;;;;;;;2.87;2.67;;;13.50;99.90;;;;;;4878898;29;20465;-67
2023/08/29 02:48:44;;;;;;;2.83;2.63;;;13.50;99.90;;;;;;4878926;29;20864;-68
2023/08/29 02:51:11;;;;;;;2.50;2.30;;;13.50;99.90;;;;;;4878571;29;20494;-68
2023/08/29 02:53:39;;;;;;;2.60;2.40;;;13.50;99.90;;;;;;4879042;29;20472;-68
2023/08/29 02:56:06;;;;;;;2.20;2.00;;;13.50;99.90;;;;;;4878811;29;20466;-68
2023/08/29 02:58:33;;;;;;;2.77;2.53;;;13.50;99.90;;;;;;4874551;29;20467;-67
2023/08/29 03:00:59;;;;;;;2.83;2.57;;;13.50;99.90;;;;;;4878515;29;20464;-68
2023/08/29 03:03:26;;;;;;;2.43;2.23;;;13.50;99.90;;;;;;4878750;29;20463;-68
2023/08/29 03:05:56;;;;;;;3.50;2.80;;;13.50;99.90;;;;;;4879020;29;20556;-68
2023/08/29 03:08:23;;;;;;;3.57;2.90;;;13.50;99.90;;;;;;4863335;29;20469;-68
2023/08/29 03:10:51;;;;;;;2.80;2.60;;;13.50;99.90;;;;;;4877823;29;20473;-68
2023/08/29 03:13:18;;;;;;;3.20;2.90;;;13.50;99.90;;;;;;4878432;29;20476;-68
2023/08/29 03:15:45;;;;;;;3.03;2.73;;;13.50;99.90;;;;;;4878820;29;20469;-67
2023/08/29 03:18:12;;;;;;;2.70;2.50;;;13.50;99.90;;;;;;4878135;29;20845;-68
2023/08/29 03:20:40;;;;;;;2.80;2.60;;;13.50;99.90;;;;;;4878661;29;20496;-68
2023/08/29 03:23:07;;;;;;;2.90;2.70;;;13.50;99.90;;;;;;4877769;29;20465;-68
2023/08/29 03:25:34;;;;;;;2.87;2.63;;;13.50;99.90;;;;;;4878638;29;20469;-67
2023/08/29 03:28:02;;;;;;;3.53;3.00;;;13.50;99.90;;;;;;4877948;29;20840;-67
2023/08/29 03:30:30;;;;;;;3.30;3.00;;;13.60;99.90;;;;;;4878162;29;20488;-68
2023/08/29 03:32:56;;;;;;;2.55;2.35;;;13.50;99.90;;;;;;4868115;29;20485;-68
2023/08/29 03:35:24;;;;;;;3.27;2.90;;;13.50;99.90;;;;;;4875179;29;20205;-68
2023/08/29 03:37:51;;;;;;;3.60;3.30;;;13.50;99.90;;;;;;4875381;29;20531;-68
2023/08/29 03:40:18;;;;;;;4.30;3.50;;;13.60;99.90;;;;;;4875685;29;20490;-67
2023/08/29 03:42:44;;;;;;;3.20;2.90;;;13.60;99.90;;;;;;4875825;29;20982;-68
2023/08/29 03:45:12;;;;;;;3.70;3.27;;;13.70;99.90;;;;;;4875697;29;20457;-68
2023/08/29 03:47:40;;;;;;;3.60;3.30;;;13.70;99.90;;;;;;4876223;29;20460;-68
2023/08/29 03:50:08;;;;;;;3.40;3.10;;;13.80;99.90;;;;;;4877531;29;20487;-67
2023/08/29 03:52:34;;;;;;;3.13;2.90;;;13.80;99.90;;;;;;4878273;29;20494;-68
2023/08/29 03:55:01;;;;;;;3.13;2.83;;;13.80;99.90;;;;;;4878313;29;20472;-67
2023/08/29 03:57:28;;;;;;;4.30;2.60;;;13.70;99.90;;;;;;4865792;29;20468;-68
2023/08/29 03:59:54;;;;;;;2.83;2.63;;;13.70;99.90;;;;;;4853188;29;20494;-67
2023/08/29 04:02:23;;;;;;;3.97;3.57;;;13.60;99.90;;;;;;4856162;29;20471;-67
2023/08/29 04:04:51;;;;;;;2.87;2.60;;;13.60;99.90;;;;;;4853161;29;20473;-67
2023/08/29 04:07:18;;;;;;;3.63;3.07;;;13.50;99.90;;;;;;4856384;29;20472;-67
2023/08/29 04:09:45;;;;;;;2.97;2.73;;;13.50;99.90;;;;;;4856188;29;20516;-67
2023/08/29 04:12:12;;;;;;;4.38;3.20;;;13.50;99.90;;;;;;4857908;29;20405;-67
2023/08/29 04:14:38;;;;;;;3.37;3.00;;;13.50;99.90;;;;;;4857438;29;20206;-67
2023/08/29 04:17:05;;;;;;;3.73;3.30;;;13.50;99.90;;;;;;4855367;29;20466;-67
2023/08/29 04:19:33;;;;;;;4.20;3.60;;;13.50;99.90;;;;;;4858303;29;20497;-67
2023/08/29 04:22:00;;;;;;;5.10;4.47;;;13.50;99.90;;;;;;4853868;29;20467;-67
2023/08/29 04:24:28;;;;;;;4.43;4.03;;;13.50;99.90;;;;;;4859022;29;20840;-68
2023/08/29 04:26:55;;;;;;;4.50;3.80;;;13.50;99.90;;;;;;4856625;29;20849;-68
2023/08/29 04:29:21;;;;;;;5.10;4.40;;;13.40;99.90;;;;;;4876756;29;20487;-68
2023/08/29 04:31:49;;;;;;;5.27;4.77;;;13.40;99.90;;;;;;4876693;29;21076;-67
2023/08/29 04:34:15;;;;;;;4.33;3.90;;;13.40;99.90;;;;;;4876932;29;20843;-67
2023/08/29 04:36:45;;;;;;;4.80;4.30;;;13.40;99.90;;;;;;4877245;29;20461;-67
2023/08/29 04:39:11;;;;;;;6.10;4.40;;;13.40;99.90;;;;;;4876898;29;20571;-68
2023/08/29 04:41:39;;;;;;;5.20;4.70;;;13.40;99.90;;;;;;4877090;29;20554;-68
2023/08/29 04:44:06;;;;;;;4.80;4.40;;;13.40;99.90;;;;;;4877290;29;20529;-67
2023/08/29 04:46:32;;;;;;;4.77;4.27;;;13.40;99.90;;;;;;4877013;29;20846;-67
2023/08/29 04:48:59;;;;;;;4.73;4.23;;;13.40;99.90;;;;;;4877072;29;20483;-67
2023/08/29 04:51:26;;;;;;;4.70;4.00;;;13.40;99.90;;;;;;4876523;29;20468;-68
2023/08/29 04:53:54;;;;;;;5.30;4.40;;;13.40;99.90;;;;;;4877000;29;20473;-67
2023/08/29 04:56:20;;;;;;;7.30;5.50;;;13.40;99.90;;;;;;4876877;29;20470;-67
2023/08/29 04:58:47;;;;;;;4.97;4.47;;;13.40;99.90;;;;;;4876767;29;20486;-67
2023/08/29 05:01:14;;;;;;;4.73;4.30;;;13.40;99.90;;;;;;4875395;29;20472;-67
2023/08/29 05:03:41;;;;;;;6.47;5.10;;;13.40;99.90;;;;;;4876950;29;20462;-67
2023/08/29 05:06:07;;;;;;;5.83;4.83;;;13.40;99.90;;;;;;4877098;29;20474;-67
2023/08/29 05:08:34;;;;;;;5.10;4.60;;;13.40;99.90;;;;;;4861536;29;20462;-67
2023/08/29 05:11:03;;;;;;;5.10;4.60;;;13.40;99.90;;;;;;4876631;29;20553;-67
2023/08/29 05:13:29;;;;;;;4.77;4.30;;;13.40;99.90;;;;;;4876322;29;20516;-68
2023/08/29 05:15:56;;;;;;;5.23;4.73;;;13.40;99.90;;;;;;4876750;29;20468;-68
2023/08/29 05:18:23;;;;;;;5.10;4.23;;;13.50;99.90;;;;;;4876388;29;20460;-67
2023/08/29 05:20:50;;;;;;;5.53;5.00;;;13.40;99.90;;;;;;4876788;29;20461;-68
2023/08/29 05:23:16;;;;;;;4.27;3.87;;;13.40;99.90;;;;;;4876125;29;20490;-68
2023/08/29 05:25:43;;;;;;;5.00;4.50;;;13.40;99.90;;;;;;4876788;29;20461;-67
2023/08/29 05:28:11;;;;;;;6.20;5.60;;;13.40;99.90;;;;;;4876540;29;20473;-67
2023/08/29 05:30:38;;;;;;;5.23;4.73;;;13.50;99.90;;;;;;4876515;29;20500;-68
2023/08/29 05:33:05;;;;;;;6.50;5.30;;;13.50;99.90;;;;;;4877666;29;20499;-67
2023/08/29 05:35:31;;;;;;;6.07;4.60;;;13.50;99.90;;;;;;4880300;29;20480;-67
2023/08/29 05:37:58;;;;;;;5.63;4.90;;;13.50;99.90;;;;;;4909336;23;20497;-92
2023/08/29 05:40:25;;;;;;;5.83;5.23;;;13.50;99.90;;;;;;4903041;29;20473;-93
2023/08/29 05:42:52;;;;;;;8.10;6.00;;;13.50;99.90;;;;;;4901411;29;20546;-92
2023/08/29 05:45:22;;;;;;;6.60;4.97;;;13.50;99.90;;;;;;4902519;29;20527;-92
2023/08/29 05:47:49;;;;;;;10.30;5.80;;;13.50;99.90;;;;;;4894998;29;20544;-92
2023/08/29 05:50:16;;;;;;;5.83;5.30;;;13.50;99.90;;;;;;4883930;29;20463;-92
2023/08/29 05:52:43;;;;;;;6.30;5.70;;;13.50;99.90;;;;;;4884176;29;20483;-92
2023/08/29 05:55:09;;;;;;;6.47;5.83;;;13.50;99.90;;;;;;4884198;29;20465;-92
2023/08/29 05:57:36;;;;;;;9.10;5.67;;;13.50;99.90;;;;;;4883943;29;20487;-93
2023/08/29 06:00:07;;;;;;;6.70;5.87;;;13.50;99.90;;;;;;4884829;29;20841;-93
2023/08/29 06:02:35;;;;;;;9.63;5.77;;;13.50;99.90;;;;;;4884448;29;20572;-92
2023/08/29 06:05:02;;;;;;;6.27;5.63;;;13.50;99.90;;;;;;4884738;29;20465;-92
2023/08/29 06:07:29;;;;;;;7.83;5.77;;;13.50;99.90;;;;;;4884130;29;21001;-93
2023/08/29 06:09:56;;;;;;;6.73;6.03;;;13.50;99.90;;;;;;4885274;29;20473;-92
2023/08/29 06:12:22;;;;;;;7.10;5.93;;;13.50;99.90;;;;;;4884320;29;20496;-93
2023/08/29 06:14:49;;;;;;;7.00;6.10;;;13.50;99.90;;;;;;4863125;29;20508;-93
2023/08/29 06:17:16;;;;;;;6.63;5.97;;;13.50;99.90;;;;;;4868950;29;21043;-92
2023/08/29 06:19:44;;;;;;;9.10;6.50;;;13.50;99.90;;;;;;4873278;29;20473;-94
2023/08/29 06:22:11;;;;;;;7.00;6.30;;;13.50;99.90;;;;;;4884194;29;20524;-92
2023/08/29 06:24:38;;;;;;;7.00;5.90;;;13.50;99.90;;;;;;4883319;29;20479;-92
2023/08/29 06:27:05;;;;;;;7.30;6.37;;;13.60;99.90;;;;;;4883300;29;20475;-91
2023/08/29 06:29:32;;;;;;;6.60;6.00;;;13.60;99.90;;;;;;4883581;29;20477;-92
2023/08/29 06:31:59;;;;;;;5.63;5.03;;;13.60;99.90;;;;;;4883090;29;20978;-93
2023/08/29 06:34:26;;;;;;;6.17;5.57;;;13.50;99.90;;;;;;4884285;29;20651;-91
2023/08/29 06:36:54;;;;;;;5.60;5.10;;;13.50;99.90;;;;;;4869531;29;20470;-91
2023/08/29 06:39:20;;;;;;;6.30;5.40;;;13.50;99.90;;;;;;4860296;29;20476;-92
2023/08/29 06:41:47;;;;;;;7.33;6.43;;;13.50;99.90;;;;;;4863909;29;20474;-93
2023/08/29 06:44:14;;;;;;;6.50;5.63;;;13.60;99.90;;;;;;4875607;29;20560;-92
2023/08/29 06:46:44;;;;;;;6.30;5.37;;;13.60;99.90;;;;;;4890776;29;20476;-95
2023/08/29 06:49:11;;;;;;;6.27;5.67;;;13.60;99.90;;;;;;4888858;29;20492;-92
2023/08/29 06:51:38;;;;;;;7.20;6.20;;;13.60;99.90;;;;;;4889623;29;20468;-92
2023/08/29 06:54:06;;;;;;;6.57;5.90;;;13.50;99.90;;;;;;4897572;29;20542;-94
2023/08/29 06:56:33;;;;;;;7.20;5.60;;;13.60;99.90;;;;;;4901118;29;20489;-93
2023/08/29 06:59:00;;;;;;;5.67;5.07;;;13.60;99.90;;;;;;4898027;29;20502;-93
2023/08/29 07:01:59;;;;;;;5.83;5.33;;;13.60;99.90;;;;;;4898839;29;20467;-93
2023/08/29 07:04:26;;;;;;;6.70;5.60;;;13.60;99.90;;;;;;4895191;29;20524;-93
2023/08/29 07:06:53;;;;;;;6.50;5.40;;;13.60;99.90;;;;;;4892089;29;20465;-93
2023/08/29 07:09:21;;;;;;;6.73;6.03;;;13.50;99.90;;;;;;4892300;29;20467;-93
2023/08/29 07:11:48;;;;;;;6.77;5.80;;;13.60;99.90;;;;;;4892104;29;20920;-94
2023/08/29 07:14:15;;;;;;;6.37;5.77;;;13.50;99.90;;;;;;4893284;29;20550;-93
2023/08/29 07:16:41;;;;;;;7.73;6.40;;;13.60;99.90;;;;;;4891730;29;20468;-93
2023/08/29 07:19:10;;;;;;;7.00;6.30;;;13.60;99.90;;;;;;4893016;29;20492;-93
2023/08/29 07:21:37;;;;;;;8.00;6.30;;;13.60;99.90;;;;;;4897487;29;20456;-93
2023/08/29 07:24:04;;;;;;;7.93;7.13;;;13.60;99.90;;;;;;4900561;29;20447;-94
2023/08/29 07:26:33;;;;;;;7.00;6.40;;;13.60;99.90;;;;;;4901441;29;20466;-93
2023/08/29 07:29:04;;;;;;;7.47;6.40;;;13.70;99.90;;;;;;4893655;29;20487;-92
2023/08/29 07:31:31;;;;;;;6.67;6.07;;;13.70;99.90;;;;;;4894492;29;20468;-93
2023/08/29 07:33:58;;;;;;;7.80;6.90;;;13.70;99.90;;;;;;4894348;29;20486;-92
2023/08/29 07:36:25;;;;;;;7.47;6.47;;;13.70;99.90;;;;;;4894687;29;20460;-93
2023/08/29 07:38:52;;;;;;;6.72;6.03;;;13.80;99.90;;;;;;4859221;29;1061498;-93
2023/08/29 07:41:18;;;;;;;6.40;5.80;;;13.80;99.90;;;;;;4894317;29;20212;-93
2023/08/29 07:43:46;;;;;;;6.20;5.60;;;13.80;99.90;;;;;;4897122;29;20465;-93
2023/08/29 07:46:13;;;;;;;6.77;5.90;;;13.90;99.90;;;;;;4877519;29;20555;-93
2023/08/29 07:48:40;;;;;;;7.23;5.43;;;13.90;99.90;;;;;;4869952;29;20492;-93
2023/08/29 07:51:07;;;;;;;7.83;7.00;;;13.90;99.90;;;;;;4878303;29;20467;-93
2023/08/29 07:53:34;;;;;;;6.80;6.10;;;14.00;99.90;;;;;;4875107;29;20499;-92
2023/08/29 07:56:00;;;;;;;6.50;5.80;;;14.00;99.90;;;;;;4869215;29;20471;-92
2023/08/29 07:58:27;;;;;;;6.07;5.50;;;14.00;99.90;;;;;;4874030;29;20495;-93
2023/08/29 08:00:56;;;;;;;6.17;5.67;;;14.00;99.90;;;;;;4874328;29;20497;-93
2023/08/29 08:03:40;;;;;;;6.07;5.57;;;13.90;99.90;;;;;;4877368;29;20475;-93
2023/08/29 08:06:09;;;;;;;7.07;6.27;;;14.00;99.90;;;;;;4878669;29;20465;-93
2023/08/29 08:08:36;;;;;;;6.47;5.80;;;14.00;99.90;;;;;;4874709;29;20484;-93
2023/08/29 08:11:04;;;;;;;5.33;4.80;;;14.00;99.90;;;;;;4869093;29;20538;-92
2023/08/29 08:16:38;;;;;;;5.33;4.83;;;14.00;99.90;;;;;;4872911;29;20474;-93
2023/08/29 08:19:12;;;;;;;5.60;5.10;;;14.00;99.90;;;;;;4870082;29;20568;-92
2023/08/29 08:21:39;;;;;;;5.67;5.17;;;14.00;99.90;;;;;;4869779;29;20469;-93
2023/08/29 08:24:08;;;;;;;7.03;6.33;;;14.00;99.90;;;;;;4868603;29;20544;-92
2023/08/29 08:26:34;;;;;;;5.90;5.40;;;14.00;99.90;;;;;;4870945;29;20474;-93
2023/08/29 08:29:05;;;;;;;6.10;5.23;;;14.00;99.90;;;;;;4874000;29;20513;-92
2023/08/29 08:31:42;;;;;;;6.07;5.47;;;14.00;99.90;;;;;;4873050;29;20484;-93
2023/08/29 08:34:10;;;;;;;5.83;5.30;;;14.10;99.90;;;;;;4872980;29;20494;-93
2023/08/29 08:36:37;;;;;;;6.23;5.63;;;14.10;99.90;;;;;;4869693;29;20470;-94
2023/08/29 08:39:08;;;;;;;6.73;6.03;;;14.10;99.90;;;;;;4874389;29;20509;-95
2023/08/29 08:41:35;;;;;;;6.77;5.93;;;14.10;99.90;;;;;;4872541;29;20477;-92
2023/08/29 08:44:07;;;;;;;6.47;5.70;;;14.10;99.90;;;;;;4872524;29;20482;-93
2023/08/29 08:46:35;;;;;;;7.50;6.80;;;14.10;99.90;;;;;;4876602;29;20508;-94
2023/08/29 08:49:04;;;;;;;8.47;6.53;;;14.20;99.90;;;;;;4882247;29;20514;-93
2023/08/29 08:51:42;;;;;;;7.83;7.10;;;14.10;99.90;;;;;;4881530;29;20533;-93
2023/08/29 08:54:08;;;;;;;6.90;6.20;;;14.20;99.90;;;;;;4881586;29;20488;-92
2023/08/29 08:56:39;;;;;;;7.20;6.50;;;14.20;99.90;;;;;;4880690;29;20470;-92
2023/08/29 08:59:08;;;;;;;6.83;5.60;;;14.20;99.90;;;;;;4875216;29;20503;-93
2023/08/29 09:01:34;;;;;;;7.60;6.13;;;14.30;99.90;;;;;;4879815;29;20513;-93
2023/08/29 09:04:03;;;;;;;6.90;6.27;;;14.30;99.90;;;;;;4883531;29;20483;-92
2023/08/29 09:06:38;;;;;;;7.60;6.07;;;14.30;99.90;;;;;;4883582;29;20462;-93
2023/08/29 09:09:19;;;;;;;7.10;6.40;;;14.20;99.90;;;;;;4880689;29;20493;-92
2023/08/29 09:11:52;;;;;;;8.03;6.60;;;14.30;99.90;;;;;;4878091;29;20493;-93
2023/08/29 09:14:19;;;;;;;7.20;6.53;;;14.20;99.90;;;;;;4877601;29;20490;-93
2023/08/29 09:16:53;;;;;;;6.13;5.53;;;14.20;99.90;;;;;;4876890;29;20515;-92
2023/08/29 09:19:25;;;;;;;7.77;6.97;;;14.20;99.90;;;;;;4877996;29;20461;-94
2023/08/29 09:21:52;;;;;;;6.70;6.10;;;14.30;99.90;;;;;;4877464;29;20908;-93
2023/08/29 09:24:24;;;;;;;6.40;5.80;;;14.30;99.90;;;;;;4878819;29;20481;-92
2023/08/29 09:26:51;;;;;;;6.60;6.00;;;14.30;99.90;;;;;;4878873;29;20546;-92
2023/08/29 09:29:18;;;;;;;7.57;6.53;;;14.40;99.90;;;;;;4878037;29;20524;-94
2023/08/29 09:31:53;;;;;;;7.30;6.33;;;14.40;99.90;;;;;;4879228;29;20478;-94
2023/08/29 09:34:29;;;;;;;7.30;6.60;;;14.40;99.90;;;;;;4880003;29;20515;-93
2023/08/29 09:36:56;;;;;;;5.70;5.20;;;14.40;99.90;;;;;;4879833;29;20503;-93
2023/08/29 09:39:23;;;;;;;7.87;5.90;;;14.40;99.90;;;;;;4878541;29;20487;-93
2023/08/29 09:42:05;;;;;;;6.73;5.80;;;14.30;99.90;;;;;;4878243;29;20473;-93
2023/08/29 09:44:36;;;;;;;6.37;5.60;;;14.30;99.90;;;;;;4878171;29;20477;-92
2023/08/29 09:47:07;;;;;;;6.97;6.27;;;14.30;99.90;;;;;;4877476;29;20955;-93
2023/08/29 09:49:56;;;;;;;5.90;5.40;;;14.30;99.90;;;;;;4877156;29;20487;-92
2023/08/29 09:52:23;;;;;;;7.43;6.70;;;14.40;99.90;;;;;;4875865;29;20477;-92
2023/08/29 09:54:51;;;;;;;7.13;6.43;;;14.50;99.90;;;;;;4875684;29;20553;-93
2023/08/29 09:57:24;;;;;;;7.50;6.77;;;14.50;99.90;;;;;;4877118;29;21018;-93
2023/08/29 09:59:52;;;;;;;6.83;6.13;;;14.60;99.90;;;;;;4875990;29;20464;-93
2023/08/29 10:02:23;;;;;;;8.10;6.83;;;14.60;99.90;;;;;;4876832;29;20542;-94
2023/08/29 10:04:57;;;;;;;7.60;6.80;;;14.70;99.90;;;;;;4878905;29;20470;-93
2023/08/29 10:07:27;;;;;;;8.67;7.87;;;14.70;99.90;;;;;;4879535;29;20500;-92
2023/08/29 10:10:14;;;;;;;7.40;6.73;;;14.70;99.90;;;;;;4879313;29;20490;-93
2023/08/29 10:12:41;;;;;;;7.80;7.00;;;14.80;99.90;;;;;;4880017;29;20435;-94
2023/08/29 10:15:15;;;;;;;6.07;5.47;;;14.90;99.90;;;;;;4879541;29;20521;-92
2023/08/29 10:17:54;;;;;;;7.13;6.43;;;14.90;99.90;;;;;;4879866;29;20489;-93
2023/08/29 10:20:34;;;;;;;9.10;6.97;;;15.00;99.90;;;;;;4883244;29;20491;-93
2023/08/29 10:23:08;;;;;;;7.80;7.10;;;15.10;99.90;;;;;;4882915;29;20955;-94
2023/08/29 10:25:38;;;;;;;7.03;6.43;;;15.10;99.90;;;;;;4874733;29;20531;-94
2023/08/29 10:28:16;;;;;;;7.77;6.97;;;15.10;99.90;;;;;;4884118;29;20466;-95
2023/08/29 10:30:45;;;;;;;6.83;6.23;;;15.20;99.90;;;;;;4895813;23;20506;-68
2023/08/29 10:33:13;;;;;;;6.33;5.83;;;15.20;99.90;;;;;;4879071;29;20472;-68
2023/08/29 10:35:41;;;;;;;6.40;5.90;;;15.20;99.90;;;;;;4879616;29;20465;-68
2023/08/29 10:38:12;;;;;;;6.47;5.87;;;15.30;99.90;;;;;;4879136;29;20462;-68
2023/08/29 10:40:39;;;;;;;5.03;4.63;;;15.30;99.90;;;;;;4861448;29;20583;-68
2023/08/29 10:43:16;;;;;;;5.40;4.90;;;15.30;99.90;;;;;;4860432;29;20472;-68
2023/08/29 10:45:47;;;;;;;5.83;5.33;;;15.40;99.90;;;;;;4860704;29;20472;-68
2023/08/29 10:48:17;;;;;;;7.43;5.80;;;15.40;99.90;;;;;;4860429;29;20472;-68
2023/08/29 10:50:48;;;;;;;5.30;4.80;;;15.40;99.90;;;;;;4860551;29;20522;-68
2023/08/29 10:53:19;;;;;;;6.73;5.90;;;15.40;99.90;;;;;;4860159;29;20475;-68
2023/08/29 10:56:00;;;;;;;6.23;5.63;;;15.30;99.90;;;;;;4860480;29;20475;-68
2023/08/29 10:58:38;;;;;;;6.00;4.77;;;15.30;99.90;;;;;;4860161;29;20468;-68
2023/08/29 11:01:07;;;;;;;7.37;6.40;;;15.20;99.90;;;;;;4860058;29;20467;-68
2023/08/29 11:03:48;;;;;;;6.73;6.03;;;15.10;99.90;;;;;;4860636;29;20470;-68
2023/08/29 11:06:16;;;;;;;6.43;5.93;;;15.10;99.90;;;;;;4860327;29;20558;-68
2023/08/29 11:08:43;;;;;;;7.07;6.37;;;15.10;99.90;;;;;;4859893;29;20488;-67
2023/08/29 11:11:18;;;;;;;6.20;5.50;;;15.00;99.90;;;;;;4860053;29;20473;-68
2023/08/29 11:13:59;;;;;;;7.27;6.57;;;15.00;99.90;;;;;;4859948;29;20486;-68
2023/08/29 11:16:26;;;;;;;7.23;6.60;;;15.00;99.90;;;;;;4860080;29;20485;-68
2023/08/29 11:19:04;;;;;;;6.50;5.83;;;14.90;99.90;;;;;;4859748;29;20490;-68
2023/08/29 11:21:33;;;;;;;6.57;5.97;;;14.90;99.90;;;;;;4859775;29;20843;-68
2023/08/29 11:24:00;;;;;;;7.87;7.10;;;14.90;99.90;;;;;;4859860;29;20459;-68
2023/08/29 11:26:27;;;;;;;6.80;6.10;;;14.90;99.90;;;;;;4859990;29;20475;-67
2023/08/29 11:28:53;;;;;;;7.47;6.27;;;14.80;99.90;;;;;;4859671;29;20494;-68
2023/08/29 11:31:20;;;;;;;8.73;7.50;;;14.80;99.90;;;;;;4858443;29;20462;-68
2023/08/29 11:33:48;;;;;;;7.80;7.10;;;14.80;99.90;;;;;;4859599;29;20466;-68
2023/08/29 11:36:16;;;;;;;7.03;6.40;;;14.80;99.90;;;;;;4859725;29;20558;-68
2023/08/29 11:38:44;;;;;;;7.73;6.37;;;14.80;99.90;;;;;;4896730;23;20511;-63
2023/08/29 11:41:13;;;;;;;7.90;7.20;;;14.80;99.90;;;;;;4915501;29;20518;-64
2023/08/29 11:43:40;;;;;;;8.43;7.27;;;14.90;99.90;;;;;;4915743;29;20819;-64
2023/08/29 11:46:07;;;;;;;7.97;7.27;;;15.00;99.90;;;;;;4915698;29;20506;-64
2023/08/29 11:48:35;;;;;;;7.70;6.90;;;15.10;99.90;;;;;;4915595;29;20468;-64
2023/08/29 11:51:03;;;;;;;7.60;6.80;;;15.20;99.90;;;;;;4914975;29;20470;-64
2023/08/29 11:53:32;;;;;;;7.47;6.70;;;15.20;99.90;;;;;;4915613;29;20480;-63
2023/08/29 11:56:02;;;;;;;12.13;8.23;;;15.40;99.90;;;;;;4915187;29;20568;-64
2023/08/29 11:58:29;;;;;;;8.93;8.13;;;15.40;99.90;;;;;;4915624;29;20471;-64
2023/08/29 12:00:56;;;;;;;9.17;8.27;;;15.40;99.90;;;;;;4914799;29;20532;-64
2023/08/29 12:03:25;;;;;;;8.03;7.30;;;15.50;99.90;;;;;;4915587;29;20471;-64
2023/08/29 12:05:56;;;;;;;8.73;7.93;;;15.50;99.90;;;;;;4915077;29;20460;-64
2023/08/29 12:08:42;;;;;;;9.30;8.50;;;15.50;99.90;;;;;;4915342;29;20459;-64
2023/08/29 12:11:12;;;;;;;8.40;7.70;;;15.40;99.90;;;;;;4907652;29;20532;-63
2023/08/29 12:13:41;;;;;;;8.83;7.90;;;15.40;99.90;;;;;;4911173;29;20467;-63
2023/08/29 12:16:15;;;;;;;8.40;7.43;;;15.50;99.90;;;;;;4896737;29;20489;-64
2023/08/29 12:18:43;;;;;;;7.33;6.63;;;15.50;99.90;;;;;;4895665;29;20572;-64
2023/08/29 12:21:17;;;;;;;7.10;6.43;;;15.50;99.90;;;;;;4913394;29;20472;-64
2023/08/29 12:23:44;;;;;;;8.97;8.17;;;15.50;99.90;;;;;;4914809;29;20469;-63
2023/08/29 12:26:14;;;;;;;8.87;7.97;;;15.40;99.90;;;;;;4897764;29;20482;-64
2023/08/29 12:28:42;;;;;;;8.10;7.30;;;15.40;99.90;;;;;;4908075;29;20915;-63
2023/08/29 12:31:10;;;;;;;9.10;8.10;;;15.40;99.90;;;;;;4893751;29;20487;-64
2023/08/29 12:33:38;;;;;;;8.40;7.60;;;15.40;99.90;;;;;;4894638;29;20463;-64
2023/08/29 12:36:05;;;;;;;7.90;7.20;;;15.40;99.90;;;;;;4895015;29;21017;-64
2023/08/29 12:38:32;;;;;;;9.83;7.90;;;15.30;99.90;;;;;;4895288;29;20868;-64
2023/08/29 12:41:00;;;;;;;8.10;7.40;;;15.30;99.90;;;;;;4894697;29;20465;-63
2023/08/29 12:43:28;;;;;;;8.03;7.23;;;15.20;99.90;;;;;;4895547;29;20552;-64
2023/08/29 12:45:55;;;;;;;8.90;8.10;;;15.20;99.90;;;;;;4894578;29;20489;-64
2023/08/29 12:48:23;;;;;;;6.70;6.10;;;15.20;99.90;;;;;;4887420;29;20470;-64
2023/08/29 12:50:51;;;;;;;8.10;7.40;;;15.20;99.90;;;;;;4895131;29;20480;-64
2023/08/29 12:53:18;;;;;;;8.80;7.90;;;15.20;99.90;;;;;;4894995;29;20477;-64
2023/08/29 12:55:45;;;;;;;8.60;7.80;;;15.20;99.90;;;;;;4894575;29;20838;-64